sensor_id;sensor_type;location;lat;lon;timestamp;P1;durP1;ratioP1;P2;durP2;ratioP2
10311;SDS011;5201;48.776;9.128;2023-06-04T00:02:11;5.30;;;2.63;;
10311;SDS011;5201;48.776;9.128;2023-06-04T00:04:37;4.30;;;2.87;;
10311;SDS011;5201;48.776;9.128;2023-06-04T00:07:03;8.07;;;3.43;;
10311;SDS011;5201;48.776;9.128;2023-06-04T00:09:28;8.17;;;3.37;;
10311;SDS011;5201;48.776;9.128;2023-06-04T00:11:54;4.30;;;2.83;;
10311;SDS011;5201;48.776;9.128;2023-06-04T00:14:20;6.13;;;3.33;;
10311;SDS011;5201;48.776;9.128;2023-06-04T00:16:46;6.30;;;3.57;;
10311;SDS011;5201;48.776;9.128;2023-06-04T00:19:12;4.50;;;3.30;;
10311;SDS011;5201;48.776;9.128;2023-06-04T00:21:37;4.60;;;3.27;;
10311;SDS011;5201;48.776;9.128;2023-06-04T00:24:03;7.03;;;2.80;;
10311;SDS011;5201;48.776;9.128;2023-06-04T00:26:28;10.23;;;3.63;;
10311;SDS011;5201;48.776;9.128;2023-06-04T00:28:54;5.40;;;3.13;;
10311;SDS011;5201;48.776;9.128;2023-06-04T00:31:20;5.80;;;3.00;;
10311;SDS011;5201;48.776;9.128;2023-06-04T00:33:46;3.47;;;2.70;;
10311;SDS011;5201;48.776;9.128;2023-06-04T00:36:12;5.53;;;3.20;;
10311;SDS011;5201;48.776;9.128;2023-06-04T00:38:38;6.13;;;2.90;;
10311;SDS011;5201;48.776;9.128;2023-06-04T00:41:03;3.67;;;3.10;;
10311;SDS011;5201;48.776;9.128;2023-06-04T00:43:29;5.77;;;3.30;;
10311;SDS011;5201;48.776;9.128;2023-06-04T00:45:56;6.30;;;3.40;;
10311;SDS011;5201;48.776;9.128;2023-06-04T00:48:22;5.57;;;2.93;;
10311;SDS011;5201;48.776;9.128;2023-06-04T00:50:48;3.67;;;3.20;;
10311;SDS011;5201;48.776;9.128;2023-06-04T00:53:15;4.07;;;2.70;;
10311;SDS011;5201;48.776;9.128;2023-06-04T00:55:41;3.23;;;2.83;;
10311;SDS011;5201;48.776;9.128;2023-06-04T00:58:07;5.70;;;4.20;;
10311;SDS011;5201;48.776;9.128;2023-06-04T01:00:34;7.07;;;3.60;;
10311;SDS011;5201;48.776;9.128;2023-06-04T01:03:02;5.87;;;3.37;;
10311;SDS011;5201;48.776;9.128;2023-06-04T01:05:34;6.50;;;4.17;;
10311;SDS011;5201;48.776;9.128;2023-06-04T01:08:04;5.83;;;3.30;;
10311;SDS011;5201;48.776;9.128;2023-06-04T01:10:33;4.03;;;3.17;;
10311;SDS011;5201;48.776;9.128;2023-06-04T01:12:59;6.27;;;3.60;;
10311;SDS011;5201;48.776;9.128;2023-06-04T01:15:25;6.37;;;3.37;;
10311;SDS011;5201;48.776;9.128;2023-06-04T01:17:51;3.90;;;2.77;;
10311;SDS011;5201;48.776;9.128;2023-06-04T01:23:26;4.23;;;2.63;;
10311;SDS011;5201;48.776;9.128;2023-06-04T01:26:03;4.87;;;2.90;;
10311;SDS011;5201;48.776;9.128;2023-06-04T01:28:33;4.13;;;2.63;;
10311;SDS011;5201;48.776;9.128;2023-06-04T01:31:00;4.30;;;3.17;;
10311;SDS011;5201;48.776;9.128;2023-06-04T01:33:27;3.43;;;3.13;;
10311;SDS011;5201;48.776;9.128;2023-06-04T01:35:53;7.57;;;3.30;;
10311;SDS011;5201;48.776;9.128;2023-06-04T01:38:19;5.93;;;2.90;;
10311;SDS011;5201;48.776;9.128;2023-06-04T01:40:45;4.07;;;3.10;;
10311;SDS011;5201;48.776;9.128;2023-06-04T01:43:11;3.00;;;2.40;;
10311;SDS011;5201;48.776;9.128;2023-06-04T01:45:37;15.03;;;2.90;;
10311;SDS011;5201;48.776;9.128;2023-06-04T01:48:03;5.63;;;2.70;;
10311;SDS011;5201;48.776;9.128;2023-06-04T01:50:30;7.27;;;3.00;;
10311;SDS011;5201;48.776;9.128;2023-06-04T01:52:56;4.70;;;2.80;;
10311;SDS011;5201;48.776;9.128;2023-06-04T01:55:22;3.47;;;2.70;;
10311;SDS011;5201;48.776;9.128;2023-06-04T01:57:50;6.90;;;3.30;;
10311;SDS011;5201;48.776;9.128;2023-06-04T02:00:16;5.90;;;2.93;;
10311;SDS011;5201;48.776;9.128;2023-06-04T02:02:43;4.80;;;3.00;;
10311;SDS011;5201;48.776;9.128;2023-06-04T02:05:15;5.73;;;2.93;;
10311;SDS011;5201;48.776;9.128;2023-06-04T02:07:42;5.83;;;3.10;;
10311;SDS011;5201;48.776;9.128;2023-06-04T02:10:10;6.10;;;2.63;;
10311;SDS011;5201;48.776;9.128;2023-06-04T02:12:38;4.30;;;3.13;;
10311;SDS011;5201;48.776;9.128;2023-06-04T02:15:05;5.40;;;3.00;;
10311;SDS011;5201;48.776;9.128;2023-06-04T02:17:32;4.73;;;3.10;;
10311;SDS011;5201;48.776;9.128;2023-06-04T02:20:02;5.53;;;2.53;;
10311;SDS011;5201;48.776;9.128;2023-06-04T02:22:29;6.00;;;2.80;;
10311;SDS011;5201;48.776;9.128;2023-06-04T02:24:55;4.67;;;2.83;;
10311;SDS011;5201;48.776;9.128;2023-06-04T02:27:20;8.30;;;2.40;;
10311;SDS011;5201;48.776;9.128;2023-06-04T02:29:46;3.63;;;2.67;;
10311;SDS011;5201;48.776;9.128;2023-06-04T02:32:11;3.20;;;2.77;;
10311;SDS011;5201;48.776;9.128;2023-06-04T02:34:37;4.70;;;3.03;;
10311;SDS011;5201;48.776;9.128;2023-06-04T02:37:03;3.60;;;2.40;;
10311;SDS011;5201;48.776;9.128;2023-06-04T02:39:28;4.07;;;2.97;;
10311;SDS011;5201;48.776;9.128;2023-06-04T02:41:54;4.83;;;3.30;;
10311;SDS011;5201;48.776;9.128;2023-06-04T02:44:20;2.83;;;2.53;;
10311;SDS011;5201;48.776;9.128;2023-06-04T02:46:45;5.13;;;2.67;;
10311;SDS011;5201;48.776;9.128;2023-06-04T02:49:11;4.23;;;2.40;;
10311;SDS011;5201;48.776;9.128;2023-06-04T02:51:41;2.93;;;2.40;;
10311;SDS011;5201;48.776;9.128;2023-06-04T02:54:10;9.37;;;2.70;;
10311;SDS011;5201;48.776;9.128;2023-06-04T02:56:36;7.07;;;2.63;;
10311;SDS011;5201;48.776;9.128;2023-06-04T02:59:02;4.27;;;2.13;;
10311;SDS011;5201;48.776;9.128;2023-06-04T03:01:28;4.20;;;2.57;;
10311;SDS011;5201;48.776;9.128;2023-06-04T03:03:54;3.17;;;2.27;;
10311;SDS011;5201;48.776;9.128;2023-06-04T03:06:22;3.30;;;2.20;;
10311;SDS011;5201;48.776;9.128;2023-06-04T03:08:48;4.27;;;2.40;;
10311;SDS011;5201;48.776;9.128;2023-06-04T03:11:15;3.23;;;2.10;;
10311;SDS011;5201;48.776;9.128;2023-06-04T03:13:41;6.97;;;2.13;;
10311;SDS011;5201;48.776;9.128;2023-06-04T03:16:06;3.80;;;1.90;;
10311;SDS011;5201;48.776;9.128;2023-06-04T03:18:35;4.80;;;2.80;;
10311;SDS011;5201;48.776;9.128;2023-06-04T03:21:02;3.70;;;2.17;;
10311;SDS011;5201;48.776;9.128;2023-06-04T03:23:27;3.60;;;2.20;;
10311;SDS011;5201;48.776;9.128;2023-06-04T03:25:53;5.30;;;3.13;;
10311;SDS011;5201;48.776;9.128;2023-06-04T03:28:19;2.93;;;2.53;;
10311;SDS011;5201;48.776;9.128;2023-06-04T03:30:45;2.73;;;2.00;;
10311;SDS011;5201;48.776;9.128;2023-06-04T03:33:10;2.17;;;1.70;;
10311;SDS011;5201;48.776;9.128;2023-06-04T03:35:36;4.57;;;1.97;;
10311;SDS011;5201;48.776;9.128;2023-06-04T03:38:01;2.93;;;1.80;;
10311;SDS011;5201;48.776;9.128;2023-06-04T03:40:27;3.93;;;1.87;;
10311;SDS011;5201;48.776;9.128;2023-06-04T03:42:52;3.93;;;1.90;;
10311;SDS011;5201;48.776;9.128;2023-06-04T03:45:18;3.43;;;1.90;;
10311;SDS011;5201;48.776;9.128;2023-06-04T03:47:44;3.20;;;1.70;;
10311;SDS011;5201;48.776;9.128;2023-06-04T03:50:10;2.87;;;1.80;;
10311;SDS011;5201;48.776;9.128;2023-06-04T03:52:36;1.73;;;1.57;;
10311;SDS011;5201;48.776;9.128;2023-06-04T03:55:02;2.17;;;1.97;;
10311;SDS011;5201;48.776;9.128;2023-06-04T03:57:28;4.37;;;1.80;;
10311;SDS011;5201;48.776;9.128;2023-06-04T03:59:54;4.40;;;1.87;;
10311;SDS011;5201;48.776;9.128;2023-06-04T04:02:20;2.23;;;1.80;;
10311;SDS011;5201;48.776;9.128;2023-06-04T04:04:45;4.37;;;1.73;;
10311;SDS011;5201;48.776;9.128;2023-06-04T04:07:11;3.10;;;1.83;;
10311;SDS011;5201;48.776;9.128;2023-06-04T04:09:37;4.23;;;2.10;;
10311;SDS011;5201;48.776;9.128;2023-06-04T04:12:03;2.63;;;2.10;;
10311;SDS011;5201;48.776;9.128;2023-06-04T04:14:29;3.07;;;2.20;;
10311;SDS011;5201;48.776;9.128;2023-06-04T04:16:54;3.17;;;2.13;;
10311;SDS011;5201;48.776;9.128;2023-06-04T04:19:20;4.17;;;1.80;;
10311;SDS011;5201;48.776;9.128;2023-06-04T04:21:46;4.20;;;2.43;;
10311;SDS011;5201;48.776;9.128;2023-06-04T04:24:24;3.93;;;1.83;;
10311;SDS011;5201;48.776;9.128;2023-06-04T04:26:51;5.40;;;2.40;;
10311;SDS011;5201;48.776;9.128;2023-06-04T04:29:23;3.33;;;1.97;;
10311;SDS011;5201;48.776;9.128;2023-06-04T04:31:52;3.43;;;2.23;;
10311;SDS011;5201;48.776;9.128;2023-06-04T04:34:22;3.23;;;1.73;;
10311;SDS011;5201;48.776;9.128;2023-06-04T04:36:48;1.90;;;1.60;;
10311;SDS011;5201;48.776;9.128;2023-06-04T04:39:24;3.73;;;1.47;;
10311;SDS011;5201;48.776;9.128;2023-06-04T04:41:50;3.03;;;2.17;;
10311;SDS011;5201;48.776;9.128;2023-06-04T04:44:16;4.60;;;1.80;;
10311;SDS011;5201;48.776;9.128;2023-06-04T04:46:42;3.67;;;1.43;;
10311;SDS011;5201;48.776;9.128;2023-06-04T04:49:08;4.00;;;1.73;;
10311;SDS011;5201;48.776;9.128;2023-06-04T04:51:33;4.10;;;1.67;;
10311;SDS011;5201;48.776;9.128;2023-06-04T04:54:00;1.80;;;1.57;;
10311;SDS011;5201;48.776;9.128;2023-06-04T04:56:25;4.43;;;1.90;;
10311;SDS011;5201;48.776;9.128;2023-06-04T04:58:52;2.37;;;1.60;;
10311;SDS011;5201;48.776;9.128;2023-06-04T05:01:18;3.00;;;1.50;;
10311;SDS011;5201;48.776;9.128;2023-06-04T05:03:43;3.77;;;1.93;;
10311;SDS011;5201;48.776;9.128;2023-06-04T05:06:09;4.37;;;1.80;;
10311;SDS011;5201;48.776;9.128;2023-06-04T05:08:35;3.50;;;2.00;;
10311;SDS011;5201;48.776;9.128;2023-06-04T05:11:01;2.07;;;1.40;;
10311;SDS011;5201;48.776;9.128;2023-06-04T05:13:26;3.83;;;1.93;;
10311;SDS011;5201;48.776;9.128;2023-06-04T05:15:52;3.40;;;1.50;;
10311;SDS011;5201;48.776;9.128;2023-06-04T05:18:18;6.00;;;2.03;;
10311;SDS011;5201;48.776;9.128;2023-06-04T05:20:57;4.47;;;1.83;;
10311;SDS011;5201;48.776;9.128;2023-06-04T05:23:24;2.60;;;1.70;;
10311;SDS011;5201;48.776;9.128;2023-06-04T05:25:51;2.53;;;1.47;;
10311;SDS011;5201;48.776;9.128;2023-06-04T05:28:17;2.23;;;1.60;;
10311;SDS011;5201;48.776;9.128;2023-06-04T05:30:43;2.40;;;1.80;;
10311;SDS011;5201;48.776;9.128;2023-06-04T05:33:09;4.07;;;1.63;;
10311;SDS011;5201;48.776;9.128;2023-06-04T05:35:42;3.73;;;1.70;;
10311;SDS011;5201;48.776;9.128;2023-06-04T05:38:11;7.53;;;1.50;;
10311;SDS011;5201;48.776;9.128;2023-06-04T05:40:42;5.47;;;1.80;;
10311;SDS011;5201;48.776;9.128;2023-06-04T05:43:08;3.20;;;1.63;;
10311;SDS011;5201;48.776;9.128;2023-06-04T05:45:33;4.70;;;1.70;;
10311;SDS011;5201;48.776;9.128;2023-06-04T05:47:59;2.73;;;2.00;;
10311;SDS011;5201;48.776;9.128;2023-06-04T05:50:25;4.43;;;1.67;;
10311;SDS011;5201;48.776;9.128;2023-06-04T05:52:50;2.50;;;1.80;;
10311;SDS011;5201;48.776;9.128;2023-06-04T05:55:16;2.43;;;1.60;;
10311;SDS011;5201;48.776;9.128;2023-06-04T05:57:42;2.87;;;1.90;;
10311;SDS011;5201;48.776;9.128;2023-06-04T06:00:07;4.60;;;1.93;;
10311;SDS011;5201;48.776;9.128;2023-06-04T06:02:36;1.90;;;1.40;;
10311;SDS011;5201;48.776;9.128;2023-06-04T06:05:03;4.20;;;1.70;;
10311;SDS011;5201;48.776;9.128;2023-06-04T06:07:31;2.80;;;1.40;;
10311;SDS011;5201;48.776;9.128;2023-06-04T06:09:57;5.10;;;1.35;;
10311;SDS011;5201;48.776;9.128;2023-06-04T06:12:23;2.95;;;1.65;;
10311;SDS011;5201;48.776;9.128;2023-06-04T06:14:48;2.92;;;1.60;;
10311;SDS011;5201;48.776;9.128;2023-06-04T06:17:14;1.85;;;1.50;;
10311;SDS011;5201;48.776;9.128;2023-06-04T06:19:39;1.77;;;1.38;;
10311;SDS011;5201;48.776;9.128;2023-06-04T06:22:05;2.55;;;1.45;;
10311;SDS011;5201;48.776;9.128;2023-06-04T06:24:30;2.28;;;1.17;;
10311;SDS011;5201;48.776;9.128;2023-06-04T06:26:56;1.38;;;1.23;;
10311;SDS011;5201;48.776;9.128;2023-06-04T06:29:22;2.53;;;1.55;;
10311;SDS011;5201;48.776;9.128;2023-06-04T06:31:47;2.55;;;1.70;;
10311;SDS011;5201;48.776;9.128;2023-06-04T06:34:13;5.90;;;1.73;;
10311;SDS011;5201;48.776;9.128;2023-06-04T06:36:38;2.72;;;1.27;;
10311;SDS011;5201;48.776;9.128;2023-06-04T06:39:04;5.05;;;1.40;;
10311;SDS011;5201;48.776;9.128;2023-06-04T06:41:29;2.03;;;1.30;;
10311;SDS011;5201;48.776;9.128;2023-06-04T06:43:58;3.05;;;1.42;;
10311;SDS011;5201;48.776;9.128;2023-06-04T06:46:24;4.03;;;1.50;;
10311;SDS011;5201;48.776;9.128;2023-06-04T06:48:50;2.15;;;1.20;;
10311;SDS011;5201;48.776;9.128;2023-06-04T06:51:15;5.35;;;2.03;;
10311;SDS011;5201;48.776;9.128;2023-06-04T06:53:41;3.45;;;1.20;;
10311;SDS011;5201;48.776;9.128;2023-06-04T06:56:07;1.67;;;1.10;;
10311;SDS011;5201;48.776;9.128;2023-06-04T06:58:32;6.03;;;1.20;;
10311;SDS011;5201;48.776;9.128;2023-06-04T07:00:58;1.98;;;1.10;;
10311;SDS011;5201;48.776;9.128;2023-06-04T07:03:24;4.13;;;1.02;;
10311;SDS011;5201;48.776;9.128;2023-06-04T07:05:50;1.25;;;0.93;;
10311;SDS011;5201;48.776;9.128;2023-06-04T07:08:15;0.82;;;0.77;;
10311;SDS011;5201;48.776;9.128;2023-06-04T07:10:41;1.95;;;1.10;;
10311;SDS011;5201;48.776;9.128;2023-06-04T07:13:07;1.80;;;1.20;;
10311;SDS011;5201;48.776;9.128;2023-06-04T07:15:32;1.33;;;0.95;;
10311;SDS011;5201;48.776;9.128;2023-06-04T07:17:58;4.25;;;1.50;;
10311;SDS011;5201;48.776;9.128;2023-06-04T07:20:23;3.90;;;0.98;;
10311;SDS011;5201;48.776;9.128;2023-06-04T07:22:49;2.15;;;0.75;;
10311;SDS011;5201;48.776;9.128;2023-06-04T07:25:15;1.30;;;1.20;;
10311;SDS011;5201;48.776;9.128;2023-06-04T07:27:40;2.60;;;1.00;;
10311;SDS011;5201;48.776;9.128;2023-06-04T07:30:08;1.50;;;1.00;;
10311;SDS011;5201;48.776;9.128;2023-06-04T07:32:34;0.80;;;0.80;;
10311;SDS011;5201;48.776;9.128;2023-06-04T07:35:01;2.28;;;1.02;;
10311;SDS011;5201;48.776;9.128;2023-06-04T07:37:27;4.72;;;1.20;;
10311;SDS011;5201;48.776;9.128;2023-06-04T07:39:53;3.67;;;1.15;;
10311;SDS011;5201;48.776;9.128;2023-06-04T07:42:18;2.15;;;1.00;;
10311;SDS011;5201;48.776;9.128;2023-06-04T07:44:44;2.35;;;0.93;;
10311;SDS011;5201;48.776;9.128;2023-06-04T07:47:09;2.72;;;1.33;;
10311;SDS011;5201;48.776;9.128;2023-06-04T07:49:35;2.78;;;1.10;;
10311;SDS011;5201;48.776;9.128;2023-06-04T07:52:01;2.53;;;1.20;;
10311;SDS011;5201;48.776;9.128;2023-06-04T07:54:26;3.05;;;0.88;;
10311;SDS011;5201;48.776;9.128;2023-06-04T07:56:52;1.55;;;0.90;;
10311;SDS011;5201;48.776;9.128;2023-06-04T07:59:21;2.08;;;0.88;;
10311;SDS011;5201;48.776;9.128;2023-06-04T08:01:47;1.58;;;0.85;;
10311;SDS011;5201;48.776;9.128;2023-06-04T08:04:14;5.10;;;1.10;;
10311;SDS011;5201;48.776;9.128;2023-06-04T08:06:40;1.63;;;1.00;;
10311;SDS011;5201;48.776;9.128;2023-06-04T08:09:07;2.42;;;1.20;;
10311;SDS011;5201;48.776;9.128;2023-06-04T08:11:35;1.58;;;1.02;;
10311;SDS011;5201;48.776;9.128;2023-06-04T08:14:00;2.08;;;1.08;;
10311;SDS011;5201;48.776;9.128;2023-06-04T08:16:26;1.45;;;0.90;;
10311;SDS011;5201;48.776;9.128;2023-06-04T08:18:52;1.80;;;1.10;;
10311;SDS011;5201;48.776;9.128;2023-06-04T08:21:25;5.82;;;1.25;;
10311;SDS011;5201;48.776;9.128;2023-06-04T08:23:51;1.83;;;1.13;;
10311;SDS011;5201;48.776;9.128;2023-06-04T08:26:17;2.17;;;1.10;;
10311;SDS011;5201;48.776;9.128;2023-06-04T08:28:44;2.22;;;1.10;;
10311;SDS011;5201;48.776;9.128;2023-06-04T08:31:12;1.27;;;1.13;;
10311;SDS011;5201;48.776;9.128;2023-06-04T08:33:38;3.08;;;1.20;;
10311;SDS011;5201;48.776;9.128;2023-06-04T08:36:03;2.03;;;1.05;;
10311;SDS011;5201;48.776;9.128;2023-06-04T08:38:29;3.80;;;1.33;;
10311;SDS011;5201;48.776;9.128;2023-06-04T08:40:55;2.10;;;1.10;;
10311;SDS011;5201;48.776;9.128;2023-06-04T08:43:28;3.17;;;1.10;;
10311;SDS011;5201;48.776;9.128;2023-06-04T08:45:57;2.80;;;1.20;;
10311;SDS011;5201;48.776;9.128;2023-06-04T08:48:24;2.15;;;1.08;;
10311;SDS011;5201;48.776;9.128;2023-06-04T08:50:51;2.50;;;1.20;;
10311;SDS011;5201;48.776;9.128;2023-06-04T08:53:19;2.97;;;1.15;;
10311;SDS011;5201;48.776;9.128;2023-06-04T08:55:45;2.65;;;1.13;;
10311;SDS011;5201;48.776;9.128;2023-06-04T08:58:14;3.10;;;1.20;;
10311;SDS011;5201;48.776;9.128;2023-06-04T09:00:40;2.85;;;1.20;;
10311;SDS011;5201;48.776;9.128;2023-06-04T09:03:06;1.30;;;1.08;;
10311;SDS011;5201;48.776;9.128;2023-06-04T09:05:32;1.40;;;1.00;;
10311;SDS011;5201;48.776;9.128;2023-06-04T09:08:00;1.13;;;1.00;;
10311;SDS011;5201;48.776;9.128;2023-06-04T09:10:29;1.27;;;1.02;;
10311;SDS011;5201;48.776;9.128;2023-06-04T09:12:56;3.83;;;1.40;;
10311;SDS011;5201;48.776;9.128;2023-06-04T09:15:25;3.88;;;1.23;;
10311;SDS011;5201;48.776;9.128;2023-06-04T09:17:50;1.17;;;0.95;;
10311;SDS011;5201;48.776;9.128;2023-06-04T09:20:22;1.30;;;1.17;;
10311;SDS011;5201;48.776;9.128;2023-06-04T09:22:49;1.30;;;1.17;;
10311;SDS011;5201;48.776;9.128;2023-06-04T09:25:21;3.20;;;1.02;;
10311;SDS011;5201;48.776;9.128;2023-06-04T09:27:50;2.90;;;1.23;;
10311;SDS011;5201;48.776;9.128;2023-06-04T09:30:16;1.27;;;1.17;;
10311;SDS011;5201;48.776;9.128;2023-06-04T09:32:41;4.85;;;1.17;;
10311;SDS011;5201;48.776;9.128;2023-06-04T09:35:08;2.35;;;1.20;;
10311;SDS011;5201;48.776;9.128;2023-06-04T09:37:53;1.13;;;1.02;;
10311;SDS011;5201;48.776;9.128;2023-06-04T09:40:21;5.07;;;1.20;;
10311;SDS011;5201;48.776;9.128;2023-06-04T09:42:47;4.38;;;1.20;;
10311;SDS011;5201;48.776;9.128;2023-06-04T09:45:31;3.42;;;1.05;;
10311;SDS011;5201;48.776;9.128;2023-06-04T09:47:59;4.93;;;1.27;;
10311;SDS011;5201;48.776;9.128;2023-06-04T09:50:26;1.95;;;1.05;;
10311;SDS011;5201;48.776;9.128;2023-06-04T09:52:53;1.63;;;1.23;;
10311;SDS011;5201;48.776;9.128;2023-06-04T09:55:19;2.08;;;1.38;;
10311;SDS011;5201;48.776;9.128;2023-06-04T09:57:47;2.40;;;1.38;;
10311;SDS011;5201;48.776;9.128;2023-06-04T10:00:16;3.97;;;1.33;;
10311;SDS011;5201;48.776;9.128;2023-06-04T10:02:46;2.55;;;1.40;;
10311;SDS011;5201;48.776;9.128;2023-06-04T10:05:14;3.13;;;1.23;;
10311;SDS011;5201;48.776;9.128;2023-06-04T10:07:44;2.65;;;1.33;;
10311;SDS011;5201;48.776;9.128;2023-06-04T10:10:15;2.88;;;1.25;;
10311;SDS011;5201;48.776;9.128;2023-06-04T10:12:42;2.28;;;1.48;;
10311;SDS011;5201;48.776;9.128;2023-06-04T10:15:10;4.78;;;1.25;;
10311;SDS011;5201;48.776;9.128;2023-06-04T10:17:38;3.17;;;1.42;;
10311;SDS011;5201;48.776;9.128;2023-06-04T10:20:04;1.42;;;1.30;;
10311;SDS011;5201;48.776;9.128;2023-06-04T10:22:33;1.25;;;1.10;;
10311;SDS011;5201;48.776;9.128;2023-06-04T10:24:59;1.42;;;1.30;;
10311;SDS011;5201;48.776;9.128;2023-06-04T10:27:25;2.72;;;1.30;;
10311;SDS011;5201;48.776;9.128;2023-06-04T10:29:51;3.45;;;1.23;;
10311;SDS011;5201;48.776;9.128;2023-06-04T10:32:18;2.88;;;1.30;;
10311;SDS011;5201;48.776;9.128;2023-06-04T10:34:44;2.33;;;1.10;;
10311;SDS011;5201;48.776;9.128;2023-06-04T10:37:21;2.65;;;1.35;;
10311;SDS011;5201;48.776;9.128;2023-06-04T10:39:53;2.25;;;1.00;;
10311;SDS011;5201;48.776;9.128;2023-06-04T10:42:20;2.25;;;1.50;;
10311;SDS011;5201;48.776;9.128;2023-06-04T10:44:48;4.75;;;1.42;;
10311;SDS011;5201;48.776;9.128;2023-06-04T10:47:27;2.75;;;1.83;;
10311;SDS011;5201;48.776;9.128;2023-06-04T10:50:06;7.22;;;1.58;;
10311;SDS011;5201;48.776;9.128;2023-06-04T10:52:33;3.00;;;1.42;;
10311;SDS011;5201;48.776;9.128;2023-06-04T10:55:05;1.58;;;1.35;;
10311;SDS011;5201;48.776;9.128;2023-06-04T10:57:33;3.30;;;1.50;;
10311;SDS011;5201;48.776;9.128;2023-06-04T10:59:59;3.72;;;1.30;;
10311;SDS011;5201;48.776;9.128;2023-06-04T11:02:26;2.97;;;1.30;;
10311;SDS011;5201;48.776;9.128;2023-06-04T11:04:58;3.00;;;1.60;;
10311;SDS011;5201;48.776;9.128;2023-06-04T11:07:27;2.75;;;1.58;;
10311;SDS011;5201;48.776;9.128;2023-06-04T11:09:54;5.78;;;1.63;;
10311;SDS011;5201;48.776;9.128;2023-06-04T11:12:20;2.30;;;1.27;;
10311;SDS011;5201;48.776;9.128;2023-06-04T11:15:04;3.45;;;1.17;;
10311;SDS011;5201;48.776;9.128;2023-06-04T11:17:30;1.80;;;1.27;;
10311;SDS011;5201;48.776;9.128;2023-06-04T11:19:56;1.42;;;1.30;;
10311;SDS011;5201;48.776;9.128;2023-06-04T11:22:22;2.83;;;1.42;;
10311;SDS011;5201;48.776;9.128;2023-06-04T11:24:48;3.67;;;1.48;;
10311;SDS011;5201;48.776;9.128;2023-06-04T11:27:17;3.08;;;1.65;;
10311;SDS011;5201;48.776;9.128;2023-06-04T11:29:42;4.20;;;1.30;;
10311;SDS011;5201;48.776;9.128;2023-06-04T11:32:08;2.70;;;1.50;;
10311;SDS011;5201;48.776;9.128;2023-06-04T11:34:34;2.53;;;1.38;;
10311;SDS011;5201;48.776;9.128;2023-06-04T11:37:09;3.72;;;1.42;;
10311;SDS011;5201;48.776;9.128;2023-06-04T11:39:35;3.20;;;1.35;;
10311;SDS011;5201;48.776;9.128;2023-06-04T11:42:06;4.50;;;1.63;;
10311;SDS011;5201;48.776;9.128;2023-06-04T11:44:32;3.20;;;1.30;;
10311;SDS011;5201;48.776;9.128;2023-06-04T11:46:58;5.45;;;1.90;;
10311;SDS011;5201;48.776;9.128;2023-06-04T11:49:24;2.05;;;1.60;;
10311;SDS011;5201;48.776;9.128;2023-06-04T11:51:51;4.20;;;1.38;;
10311;SDS011;5201;48.776;9.128;2023-06-04T11:54:18;2.22;;;1.48;;
10311;SDS011;5201;48.776;9.128;2023-06-04T11:56:45;3.78;;;1.20;;
10311;SDS011;5201;48.776;9.128;2023-06-04T11:59:13;5.30;;;1.60;;
10311;SDS011;5201;48.776;9.128;2023-06-04T12:01:40;4.22;;;1.80;;
10311;SDS011;5201;48.776;9.128;2023-06-04T12:04:11;1.83;;;1.60;;
10311;SDS011;5201;48.776;9.128;2023-06-04T12:06:38;6.35;;;1.75;;
10311;SDS011;5201;48.776;9.128;2023-06-04T12:09:04;4.10;;;1.60;;
10311;SDS011;5201;48.776;9.128;2023-06-04T12:11:33;2.90;;;1.52;;
10311;SDS011;5201;48.776;9.128;2023-06-04T12:14:00;2.58;;;1.60;;
10311;SDS011;5201;48.776;9.128;2023-06-04T12:16:30;3.55;;;1.70;;
10311;SDS011;5201;48.776;9.128;2023-06-04T12:19:06;6.82;;;2.10;;
10311;SDS011;5201;48.776;9.128;2023-06-04T12:21:36;3.92;;;1.65;;
10311;SDS011;5201;48.776;9.128;2023-06-04T12:26:34;3.40;;;1.80;;
10311;SDS011;5201;48.776;9.128;2023-06-04T12:29:12;6.00;;;1.48;;
10311;SDS011;5201;48.776;9.128;2023-06-04T12:31:39;5.07;;;1.95;;
10311;SDS011;5201;48.776;9.128;2023-06-04T12:34:06;3.80;;;1.80;;
10311;SDS011;5201;48.776;9.128;2023-06-04T12:36:32;2.22;;;1.83;;
10311;SDS011;5201;48.776;9.128;2023-06-04T12:39:02;3.72;;;1.98;;
10311;SDS011;5201;48.776;9.128;2023-06-04T12:41:30;3.13;;;1.80;;
10311;SDS011;5201;48.776;9.128;2023-06-04T12:43:56;4.70;;;1.65;;
10311;SDS011;5201;48.776;9.128;2023-06-04T12:46:22;3.03;;;1.48;;
10311;SDS011;5201;48.776;9.128;2023-06-04T12:48:49;2.80;;;1.23;;
10311;SDS011;5201;48.776;9.128;2023-06-04T12:51:16;5.72;;;1.73;;
10311;SDS011;5201;48.776;9.128;2023-06-04T12:53:41;1.65;;;1.27;;
10311;SDS011;5201;48.776;9.128;2023-06-04T12:56:07;2.92;;;1.40;;
10311;SDS011;5201;48.776;9.128;2023-06-04T12:58:33;2.28;;;1.35;;
10311;SDS011;5201;48.776;9.128;2023-06-04T13:00:59;3.63;;;1.65;;
10311;SDS011;5201;48.776;9.128;2023-06-04T13:03:25;4.57;;;1.40;;
10311;SDS011;5201;48.776;9.128;2023-06-04T13:05:51;2.45;;;1.50;;
10311;SDS011;5201;48.776;9.128;2023-06-04T13:08:19;2.35;;;1.42;;
10311;SDS011;5201;48.776;9.128;2023-06-04T13:10:48;3.22;;;1.35;;
10311;SDS011;5201;48.776;9.128;2023-06-04T13:13:15;3.55;;;1.80;;
10311;SDS011;5201;48.776;9.128;2023-06-04T13:15:41;1.48;;;1.38;;
10311;SDS011;5201;48.776;9.128;2023-06-04T13:18:08;2.42;;;1.50;;
10311;SDS011;5201;48.776;9.128;2023-06-04T13:20:35;5.97;;;1.58;;
10311;SDS011;5201;48.776;9.128;2023-06-04T13:23:01;3.78;;;1.52;;
10311;SDS011;5201;48.776;9.128;2023-06-04T13:25:27;2.10;;;1.40;;
10311;SDS011;5201;48.776;9.128;2023-06-04T13:27:53;3.30;;;1.52;;
10311;SDS011;5201;48.776;9.128;2023-06-04T13:30:19;2.60;;;1.48;;
10311;SDS011;5201;48.776;9.128;2023-06-04T13:32:46;2.20;;;1.48;;
10311;SDS011;5201;48.776;9.128;2023-06-04T13:35:11;3.17;;;1.45;;
10311;SDS011;5201;48.776;9.128;2023-06-04T13:37:37;2.13;;;1.50;;
10311;SDS011;5201;48.776;9.128;2023-06-04T13:40:02;2.63;;;1.50;;
10311;SDS011;5201;48.776;9.128;2023-06-04T13:42:29;3.50;;;1.67;;
10311;SDS011;5201;48.776;9.128;2023-06-04T13:44:54;3.58;;;1.80;;
10311;SDS011;5201;48.776;9.128;2023-06-04T13:47:20;3.05;;;1.83;;
10311;SDS011;5201;48.776;9.128;2023-06-04T13:49:46;4.70;;;1.35;;
10311;SDS011;5201;48.776;9.128;2023-06-04T13:52:12;4.40;;;1.90;;
10311;SDS011;5201;48.776;9.128;2023-06-04T13:54:38;2.28;;;1.55;;
10311;SDS011;5201;48.776;9.128;2023-06-04T13:57:03;2.45;;;1.33;;
10311;SDS011;5201;48.776;9.128;2023-06-04T13:59:29;2.38;;;1.70;;
10311;SDS011;5201;48.776;9.128;2023-06-04T14:01:56;3.13;;;1.30;;
10311;SDS011;5201;48.776;9.128;2023-06-04T14:04:22;1.60;;;1.40;;
10311;SDS011;5201;48.776;9.128;2023-06-04T14:06:47;1.38;;;1.20;;
10311;SDS011;5201;48.776;9.128;2023-06-04T14:09:13;4.57;;;1.65;;
10311;SDS011;5201;48.776;9.128;2023-06-04T14:11:39;2.90;;;1.52;;
10311;SDS011;5201;48.776;9.128;2023-06-04T14:14:05;2.70;;;1.63;;
10311;SDS011;5201;48.776;9.128;2023-06-04T14:16:31;7.32;;;1.73;;
10311;SDS011;5201;48.776;9.128;2023-06-04T14:18:56;2.70;;;1.50;;
10311;SDS011;5201;48.776;9.128;2023-06-04T14:21:22;2.55;;;1.48;;
10311;SDS011;5201;48.776;9.128;2023-06-04T14:23:48;2.55;;;1.30;;
10311;SDS011;5201;48.776;9.128;2023-06-04T14:26:15;1.95;;;1.33;;
10311;SDS011;5201;48.776;9.128;2023-06-04T14:28:42;1.90;;;1.70;;
10311;SDS011;5201;48.776;9.128;2023-06-04T14:31:08;2.97;;;1.60;;
10311;SDS011;5201;48.776;9.128;2023-06-04T14:33:34;4.10;;;1.45;;
10311;SDS011;5201;48.776;9.128;2023-06-04T14:36:02;2.63;;;1.45;;
10311;SDS011;5201;48.776;9.128;2023-06-04T14:38:30;2.97;;;2.00;;
10311;SDS011;5201;48.776;9.128;2023-06-04T14:40:56;2.00;;;1.50;;
10311;SDS011;5201;48.776;9.128;2023-06-04T14:43:22;3.25;;;1.52;;
10311;SDS011;5201;48.776;9.128;2023-06-04T14:45:48;1.50;;;1.30;;
10311;SDS011;5201;48.776;9.128;2023-06-04T14:48:13;3.45;;;1.60;;
10311;SDS011;5201;48.776;9.128;2023-06-04T14:50:39;2.15;;;1.15;;
10311;SDS011;5201;48.776;9.128;2023-06-04T14:53:05;2.78;;;1.42;;
10311;SDS011;5201;48.776;9.128;2023-06-04T14:55:33;4.40;;;1.30;;
10311;SDS011;5201;48.776;9.128;2023-06-04T14:57:59;2.17;;;1.25;;
10311;SDS011;5201;48.776;9.128;2023-06-04T15:00:25;2.38;;;1.60;;
10311;SDS011;5201;48.776;9.128;2023-06-04T15:02:51;6.50;;;1.85;;
10311;SDS011;5201;48.776;9.128;2023-06-04T15:05:16;6.25;;;1.25;;